createdAt,value
2023-07-18T00:02:00.211Z,190.63
2023-07-18T00:05:03.178Z,224.00
2023-07-18T00:08:06.381Z,187.02
2023-07-18T00:11:09.501Z,204.73
2023-07-18T00:14:12.433Z,167.50
2023-07-18T00:17:16.645Z,210.25
2023-07-18T00:20:20.531Z,223.77
2023-07-18T00:23:23.590Z,169.90
2023-07-18T00:26:26.503Z,213.02
2023-07-18T00:29:29.263Z,181.60
2023-07-18T00:32:32.412Z,182.07
2023-07-18T00:35:36.170Z,227.48
2023-07-18T00:38:41.506Z,198.95
2023-07-18T00:41:44.559Z,232.05
2023-07-18T00:44:50.527Z,183.07
2023-07-18T00:47:53.891Z,182.18
2023-07-18T00:50:56.835Z,177.85
2023-07-18T00:54:00.461Z,164.48
2023-07-18T00:57:03.702Z,166.75
2023-07-18T01:00:12.399Z,172.70
2023-07-18T01:03:17.534Z,163.95
2023-07-18T01:06:20.370Z,174.13
2023-07-18T01:09:23.601Z,177.98
2023-07-18T01:12:26.432Z,203.35
2023-07-18T01:15:34.417Z,176.45
2023-07-18T01:18:38.906Z,169.52
2023-07-18T01:21:43.632Z,197.98
2023-07-18T01:24:46.811Z,131.35
2023-07-18T01:27:51.463Z,156.65
2023-07-18T01:30:56.980Z,265.85
2023-07-18T01:33:59.824Z,615.72
2023-07-18T01:37:04.149Z,366.65
2023-07-18T01:40:14.276Z,290.08
2023-07-18T01:43:17.185Z,328.35
2023-07-18T01:46:20.258Z,418.45
2023-07-18T01:49:24.268Z,151.98
2023-07-18T01:52:28.789Z,351.00
2023-07-18T01:55:31.874Z,382.50
2023-07-18T01:58:36.635Z,316.50
2023-07-18T02:01:39.601Z,252.68
2023-07-18T02:04:42.842Z,366.70
2023-07-18T02:07:46.481Z,225.60
2023-07-18T02:10:49.834Z,376.17
2023-07-18T02:13:52.700Z,288.27
2023-07-18T02:16:55.793Z,226.15
2023-07-18T02:19:59.123Z,270.02
2023-07-18T02:23:02.303Z,268.23
2023-07-18T02:26:05.971Z,213.30
2023-07-18T02:29:08.977Z,263.27
2023-07-18T02:32:12.151Z,343.10
2023-07-18T02:35:20.264Z,262.75
2023-07-18T02:38:24.075Z,191.10
2023-07-18T02:41:27.783Z,165.68
2023-07-18T02:44:33.752Z,175.60
2023-07-18T02:47:36.900Z,191.43
2023-07-18T02:50:39.831Z,195.02
2023-07-18T02:53:42.954Z,232.30
2023-07-18T02:56:46.172Z,179.18
2023-07-18T02:59:49.137Z,186.85
2023-07-18T03:02:53.285Z,173.25
2023-07-18T03:05:56.672Z,204.90
2023-07-18T03:08:59.534Z,219.82
2023-07-18T03:12:05.462Z,211.27
2023-07-18T03:15:12.171Z,223.73
2023-07-18T03:18:15.486Z,173.57
2023-07-18T03:21:18.981Z,222.25
2023-07-18T03:24:22.256Z,204.88
2023-07-18T03:27:25.363Z,188.52
2023-07-18T03:30:28.222Z,176.60
2023-07-18T03:33:31.368Z,210.38
2023-07-18T03:36:36.560Z,186.10
2023-07-18T03:39:40.734Z,201.95
2023-07-18T03:42:44.727Z,183.15
2023-07-18T03:45:47.721Z,201.68
2023-07-18T03:48:52.894Z,207.57
2023-07-18T03:51:56.368Z,206.63
2023-07-18T03:54:59.420Z,173.23
2023-07-18T03:58:03.096Z,186.02
2023-07-18T04:01:12.124Z,224.35
2023-07-18T04:04:15.358Z,201.57
2023-07-18T04:07:19.363Z,255.02
2023-07-18T04:10:22.765Z,294.35
2023-07-18T04:13:28.831Z,354.48
2023-07-18T04:16:37.410Z,306.48
2023-07-18T04:19:42.553Z,314.05
2023-07-18T04:22:47.588Z,412.77
2023-07-18T04:25:59.935Z,594.88
2023-07-18T04:29:06.510Z,456.98
2023-07-18T04:32:12.782Z,503.30
2023-07-18T04:35:15.832Z,432.58
2023-07-18T04:38:22.667Z,398.50
2023-07-18T04:41:25.527Z,390.05
2023-07-18T04:44:29.746Z,587.47
2023-07-18T04:47:33.773Z,857.13
2023-07-18T04:50:38.318Z,542.70
2023-07-18T04:53:41.535Z,947.47
2023-07-18T04:56:46.220Z,977.80
2023-07-18T04:59:49.994Z,817.55
2023-07-18T05:02:53.019Z,1351.75
2023-07-18T05:05:58.301Z,662.67
2023-07-18T05:09:01.947Z,887.63
2023-07-18T05:12:05.549Z,1461.97
2023-07-18T05:15:09.456Z,935.15
2023-07-18T05:18:12.655Z,940.35
2023-07-18T05:21:16.031Z,1023.83
2023-07-18T05:24:20.459Z,1027.90
2023-07-18T05:27:23.644Z,1474.93
2023-07-18T05:30:29.627Z,1148.13
2023-07-18T05:33:34.173Z,953.78
2023-07-18T05:36:38.404Z,802.03
2023-07-18T05:39:43.808Z,802.80
2023-07-18T05:42:53.366Z,1351.70
2023-07-18T05:45:56.950Z,1570.32
2023-07-18T05:49:02.981Z,1223.67
2023-07-18T05:52:06.561Z,1325.35
2023-07-18T05:55:11.432Z,1102.65
2023-07-18T05:58:15.001Z,1918.10
2023-07-18T06:01:18.716Z,1041.55
2023-07-18T06:04:22.225Z,978.30
2023-07-18T06:07:26.888Z,749.20
2023-07-18T06:10:30.317Z,1427.55
2023-07-18T06:13:33.212Z,1872.50
2023-07-18T06:16:36.204Z,1684.63
2023-07-18T06:19:40.896Z,1713.72
2023-07-18T06:22:46.376Z,916.35
2023-07-18T06:25:49.264Z,1863.22
2023-07-18T06:28:55.148Z,1530.18
2023-07-18T06:31:58.373Z,1640.63
2023-07-18T06:35:16.679Z,1651.18
2023-07-18T06:38:26.870Z,1999.90
2023-07-18T06:41:30.075Z,1999.90
2023-07-18T06:44:34.283Z,1999.90
2023-07-18T06:47:38.203Z,1999.90
2023-07-18T06:50:48.320Z,1999.90
2023-07-18T06:53:53.688Z,1999.90
2023-07-18T06:56:57.058Z,1999.90
2023-07-18T07:00:01.415Z,1999.90
2023-07-18T07:03:05.672Z,1999.90
2023-07-18T07:06:12.979Z,1999.90
2023-07-18T07:09:16.004Z,1999.90
2023-07-18T07:12:34.355Z,1999.90
2023-07-18T07:15:39.325Z,1999.90
2023-07-18T07:18:42.493Z,1999.90
2023-07-18T07:21:45.970Z,1999.90
2023-07-18T07:24:49.229Z,1999.90
2023-07-18T07:27:52.313Z,1999.90
2023-07-18T07:30:55.524Z,1999.90
2023-07-18T07:33:58.978Z,1999.90
2023-07-18T07:37:02.258Z,1999.90
2023-07-18T07:40:09.079Z,1999.90
2023-07-18T07:43:14.235Z,1999.90
2023-07-18T07:46:18.047Z,1999.90
2023-07-18T07:49:22.780Z,1999.90
2023-07-18T07:52:25.758Z,1999.90
2023-07-18T07:55:29.593Z,1999.90
2023-07-18T07:58:32.888Z,1999.90
2023-07-18T08:01:35.801Z,1999.90
2023-07-18T08:04:39.767Z,1999.90
2023-07-18T08:07:44.690Z,1999.90
2023-07-18T08:10:47.706Z,1999.90
2023-07-18T08:13:55.372Z,1999.90
2023-07-18T08:16:58.730Z,1999.90
2023-07-18T08:20:02.359Z,1999.90
2023-07-18T08:23:09.545Z,1999.90
2023-07-18T08:26:12.756Z,1999.90
2023-07-18T08:29:16.050Z,1999.90
2023-07-18T08:32:19.064Z,1999.90
2023-07-18T08:35:22.598Z,1999.90
2023-07-18T08:38:25.592Z,1999.90
2023-07-18T08:41:29.064Z,1999.90
2023-07-18T08:44:33.082Z,1999.90
2023-07-18T08:47:36.175Z,1999.90
2023-07-18T08:50:41.512Z,1999.90
2023-07-18T08:53:44.658Z,1999.90
2023-07-18T08:56:47.827Z,1999.90
2023-07-18T08:59:50.993Z,1999.90
2023-07-18T09:02:54.072Z,1999.90
2023-07-18T09:05:59.376Z,1999.90
2023-07-18T09:09:02.550Z,1999.90
2023-07-18T09:12:06.561Z,1999.90
2023-07-18T09:15:20.314Z,1999.90
2023-07-18T09:18:23.409Z,1999.90
2023-07-18T09:21:26.659Z,1999.90
2023-07-18T09:24:34.473Z,1999.90
2023-07-18T09:27:38.081Z,1999.90
2023-07-18T09:30:41.411Z,1999.90
2023-07-18T09:33:45.366Z,1999.90
2023-07-18T09:37:01.382Z,1999.90
2023-07-18T09:40:04.651Z,1999.90
2023-07-18T09:43:08.357Z,1999.90
2023-07-18T09:46:15.695Z,1999.90
2023-07-18T09:49:19.995Z,1999.90
2023-07-18T09:52:28.095Z,1999.90
2023-07-18T09:55:32.387Z,1999.90
2023-07-18T09:58:39.609Z,1999.90
2023-07-18T10:01:44.004Z,1999.90
2023-07-18T10:04:47.864Z,1999.90
2023-07-18T10:07:51.440Z,1999.90
2023-07-18T10:11:09.526Z,1999.90
2023-07-18T10:14:14.149Z,1999.90
2023-07-18T10:17:43.814Z,1999.90
2023-07-18T10:20:59.797Z,1999.90
2023-07-18T10:24:29.929Z,1999.90
2023-07-18T10:27:43.809Z,1999.90
2023-07-18T10:30:47.990Z,1999.90
2023-07-18T10:34:26.425Z,1999.90
2023-07-18T10:37:32.290Z,1999.90
2023-07-18T10:40:40.953Z,1999.90
2023-07-18T10:43:49.426Z,1999.90
2023-07-18T10:46:52.907Z,1999.90
2023-07-18T10:49:56.875Z,1999.90
2023-07-18T10:53:01.084Z,1999.90
2023-07-18T10:56:10.149Z,1999.90
2023-07-18T10:59:16.474Z,1999.90
2023-07-18T11:02:23.305Z,1999.90
2023-07-18T11:05:26.708Z,1999.90
2023-07-18T11:08:31.635Z,1999.90
2023-07-18T11:11:39.210Z,1999.90
2023-07-18T11:14:42.812Z,1999.90
2023-07-18T11:17:46.382Z,1999.90
2023-07-18T11:20:49.506Z,1999.90
2023-07-18T11:23:52.500Z,1999.90
2023-07-18T11:27:19.604Z,1999.90
2023-07-18T11:30:23.490Z,1999.90
2023-07-18T11:33:30.536Z,1999.90
2023-07-18T11:36:35.067Z,1999.90
2023-07-18T11:39:38.029Z,1999.90
2023-07-18T11:42:52.088Z,1999.90
2023-07-18T11:45:58.302Z,1999.90
2023-07-18T11:49:03.040Z,1999.90
2023-07-18T11:52:07.771Z,1999.90
2023-07-18T11:55:10.986Z,1999.90
2023-07-18T11:58:13.951Z,1999.90
2023-07-18T12:01:18.026Z,1999.90
2023-07-18T12:04:21.335Z,1999.90
2023-07-18T12:07:25.249Z,1999.90
2023-07-18T12:10:30.372Z,1999.90
2023-07-18T12:13:34.024Z,1999.90
2023-07-18T12:16:39.581Z,1999.90
2023-07-18T12:19:42.903Z,1999.90
2023-07-18T12:22:46.692Z,1999.90
2023-07-18T12:25:49.628Z,1999.90
2023-07-18T12:28:56.560Z,1999.90
2023-07-18T12:31:59.955Z,1999.90
2023-07-18T12:35:07.954Z,1999.90
2023-07-18T12:38:12.762Z,1999.90
2023-07-18T12:41:16.151Z,1999.90
2023-07-18T12:44:24.170Z,1999.90
2023-07-18T12:47:30.370Z,1999.90
2023-07-18T12:50:34.195Z,1999.90
2023-07-18T12:53:37.173Z,1999.90
2023-07-18T12:56:41.262Z,1999.90
2023-07-18T12:59:48.449Z,1999.90
2023-07-18T13:02:52.787Z,1999.90
2023-07-18T13:05:56.691Z,1999.90
2023-07-18T13:09:01.215Z,1999.90
2023-07-18T13:12:07.783Z,1999.90
2023-07-18T13:15:12.592Z,1999.90
2023-07-18T13:18:15.511Z,1999.90
2023-07-18T13:21:18.673Z,1999.90
2023-07-18T13:24:22.125Z,1999.90
2023-07-18T13:27:26.748Z,1999.90
2023-07-18T13:30:30.615Z,1999.90
2023-07-18T13:33:33.843Z,1999.90
2023-07-18T13:39:42.818Z,1999.90
2023-07-18T13:42:46.104Z,1999.90
2023-07-18T13:45:50.778Z,1999.90
2023-07-18T13:48:55.634Z,1999.90
2023-07-18T13:51:59.658Z,1999.90
2023-07-18T13:55:03.799Z,1999.90
2023-07-18T13:58:07.229Z,1999.90
2023-07-18T14:01:11.166Z,1999.90
2023-07-18T14:04:18.244Z,1999.90
2023-07-18T14:07:21.787Z,1999.90
2023-07-18T14:10:25.844Z,1999.90
2023-07-18T14:13:29.313Z,1999.90
2023-07-18T14:16:32.780Z,1999.90
2023-07-18T14:19:35.934Z,1999.90
2023-07-18T14:22:41.717Z,1999.90
2023-07-18T14:25:51.217Z,1999.90
2023-07-18T14:28:56.479Z,1999.90
2023-07-18T14:31:59.965Z,1999.90
2023-07-18T14:35:03.077Z,1999.90
2023-07-18T14:38:06.295Z,1999.90
2023-07-18T14:41:16.930Z,1999.90
2023-07-18T14:44:23.636Z,1999.90
2023-07-18T14:47:31.209Z,1999.90
2023-07-18T14:50:40.937Z,1999.90
2023-07-18T14:53:45.916Z,1999.90
2023-07-18T14:56:54.450Z,1999.90
2023-07-18T14:59:59.298Z,1999.90
2023-07-18T15:03:04.708Z,1999.90
2023-07-18T15:06:09.016Z,1999.90
2023-07-18T15:09:13.952Z,1999.90
2023-07-18T15:12:17.573Z,1999.90
2023-07-18T15:15:21.629Z,1999.90
2023-07-18T15:18:28.089Z,1999.90
2023-07-18T15:21:32.121Z,1999.90
2023-07-18T15:24:36.290Z,1999.90
2023-07-18T15:27:41.651Z,1999.90
2023-07-18T15:30:44.943Z,1999.90
2023-07-18T15:33:48.323Z,1999.90
2023-07-18T15:36:51.717Z,1999.90
2023-07-18T15:39:56.816Z,1999.90
2023-07-18T15:43:00.457Z,1999.90
2023-07-18T15:46:05.189Z,1999.90
2023-07-18T15:49:08.113Z,1999.90
2023-07-18T15:52:11.054Z,1999.90
2023-07-18T15:55:17.502Z,1999.90
2023-07-18T15:58:20.363Z,1999.90
2023-07-18T16:01:25.133Z,1999.90
2023-07-18T16:04:28.388Z,1999.90
2023-07-18T16:07:31.534Z,1999.90
2023-07-18T16:10:34.445Z,1999.90
2023-07-18T16:13:37.821Z,1999.90
2023-07-18T16:16:41.672Z,1999.90
2023-07-18T16:19:45.739Z,1999.90
2023-07-18T16:22:50.863Z,1999.90
2023-07-18T16:25:54.326Z,1999.90
2023-07-18T16:28:57.562Z,1999.90
2023-07-18T16:32:01.588Z,1999.90
2023-07-18T16:35:05.882Z,1999.90
2023-07-18T16:38:09.122Z,1999.90
2023-07-18T16:41:12.230Z,1999.90
2023-07-18T16:44:18.671Z,1999.90
2023-07-18T16:47:24.782Z,1999.90
2023-07-18T16:50:28.049Z,1999.90
2023-07-18T16:53:31.137Z,1999.90
2023-07-18T16:56:36.530Z,1999.90
2023-07-18T16:59:39.935Z,1999.90
2023-07-18T17:02:43.125Z,1999.90
2023-07-18T17:05:46.220Z,1999.90
2023-07-18T17:08:49.102Z,1999.90
2023-07-18T17:11:53.556Z,1999.90
2023-07-18T17:14:58.551Z,1999.90
2023-07-18T17:18:01.559Z,1999.90
2023-07-18T17:21:06.381Z,1999.90
2023-07-18T17:24:10.189Z,1999.90
2023-07-18T17:27:14.803Z,1999.90
2023-07-18T17:30:21.157Z,1999.90
2023-07-18T17:33:27.012Z,1999.90
2023-07-18T17:39:33.645Z,1999.90
2023-07-18T17:42:36.599Z,1999.90
2023-07-18T17:45:39.902Z,1999.90
2023-07-18T17:48:43.462Z,1999.90
2023-07-18T17:51:47.380Z,1999.90
2023-07-18T17:54:51.249Z,1999.90
2023-07-18T17:57:55.088Z,1999.90
2023-07-18T18:00:58.216Z,1999.90
2023-07-18T18:04:02.199Z,1999.90
2023-07-18T18:07:06.173Z,1999.90
2023-07-18T18:10:09.658Z,1999.90
2023-07-18T18:13:14.601Z,1999.90
2023-07-18T18:16:18.714Z,1999.90
2023-07-18T18:19:23.788Z,1999.90
2023-07-18T18:22:26.952Z,1999.90
2023-07-18T18:25:30.488Z,1999.90
2023-07-18T18:28:33.822Z,1999.90
2023-07-18T18:31:37.158Z,1999.90
2023-07-18T18:34:50.136Z,1999.90
2023-07-18T18:38:04.211Z,1999.90
2023-07-18T18:41:07.324Z,1999.90
2023-07-18T18:44:10.691Z,1999.90
2023-07-18T18:47:14.009Z,1999.90
2023-07-18T18:50:22.311Z,1999.90
2023-07-18T18:53:27.439Z,1999.90
2023-07-18T18:56:30.836Z,1999.90
2023-07-18T18:59:34.255Z,1999.90
2023-07-18T19:02:39.337Z,1999.90
2023-07-18T19:05:42.513Z,1999.90
2023-07-18T19:08:47.986Z,1999.90
2023-07-18T19:11:51.906Z,1999.90
2023-07-18T19:14:58.034Z,1999.90
2023-07-18T19:18:02.516Z,1999.90
2023-07-18T19:21:07.062Z,1999.90
2023-07-18T19:24:12.671Z,1999.90
2023-07-18T19:27:15.977Z,1999.90
2023-07-18T19:30:19.031Z,1999.90
2023-07-18T19:33:21.883Z,1999.90
2023-07-18T19:36:25.246Z,1999.90
2023-07-18T19:39:28.309Z,1999.90
2023-07-18T19:42:31.262Z,1999.90
2023-07-18T19:45:34.314Z,1999.90
2023-07-18T19:48:37.734Z,1999.90
2023-07-18T19:51:41.557Z,1999.90
2023-07-18T19:54:44.739Z,1999.90
2023-07-18T19:57:49.457Z,1999.90
2023-07-18T20:00:52.432Z,1999.90
2023-07-18T20:03:59.873Z,1999.90
2023-07-18T20:07:03.440Z,1999.90
2023-07-18T20:10:07.144Z,1999.90
2023-07-18T20:13:10.612Z,1999.90
2023-07-18T20:16:13.555Z,1999.90
2023-07-18T20:19:17.421Z,1999.90
2023-07-18T20:22:24.159Z,1999.90
2023-07-18T20:25:27.257Z,1999.90
2023-07-18T20:28:31.404Z,1999.90
2023-07-18T20:31:35.005Z,1999.90
2023-07-18T20:34:39.443Z,1999.90
2023-07-18T20:37:42.951Z,1999.90
2023-07-18T20:40:46.617Z,1999.90
2023-07-18T20:43:49.789Z,1999.90
2023-07-18T20:46:53.071Z,1999.90
2023-07-18T20:49:57.167Z,1999.90
2023-07-18T20:53:00.266Z,1999.90
2023-07-18T20:56:03.312Z,1999.90
2023-07-18T20:59:07.224Z,1999.90
2023-07-18T21:02:10.363Z,1999.90
2023-07-18T21:05:13.417Z,1999.90
2023-07-18T21:08:16.388Z,1999.90
2023-07-18T21:11:20.228Z,1999.90
2023-07-18T21:14:24.784Z,1999.90
2023-07-18T21:17:27.828Z,1999.90
2023-07-18T21:20:30.852Z,1999.90
2023-07-18T21:23:34.003Z,1999.90
2023-07-18T21:26:36.999Z,1999.90
2023-07-18T21:29:39.983Z,1999.90
2023-07-18T21:32:43.369Z,1999.90
2023-07-18T21:35:47.173Z,1999.90
2023-07-18T21:38:50.251Z,1999.90
2023-07-18T21:41:53.447Z,1999.90
2023-07-18T21:44:57.520Z,1999.90
2023-07-18T21:48:00.693Z,1999.90
2023-07-18T21:51:05.299Z,1999.90
2023-07-18T21:54:11.453Z,1999.90
2023-07-18T21:57:15.525Z,1999.90
2023-07-18T22:00:19.804Z,1999.90
2023-07-18T22:03:22.966Z,1999.90
2023-07-18T22:06:26.500Z,1999.90
2023-07-18T22:09:29.755Z,1999.90
2023-07-18T22:12:32.892Z,1999.90
2023-07-18T22:15:36.011Z,1999.90
2023-07-18T22:18:39.441Z,1999.90
2023-07-18T22:21:42.499Z,1999.90
2023-07-18T22:24:45.471Z,1999.90
2023-07-18T22:27:48.726Z,1999.90
2023-07-18T22:30:52.301Z,1999.90
2023-07-18T22:33:55.348Z,1999.90
2023-07-18T22:36:58.484Z,1999.90
2023-07-18T22:40:01.279Z,1999.90
2023-07-18T22:43:05.682Z,1999.90
2023-07-18T22:46:08.657Z,1999.90
2023-07-18T22:49:11.948Z,1999.90
2023-07-18T22:52:20.229Z,1999.90
2023-07-18T22:55:23.458Z,1999.90
2023-07-18T22:58:26.263Z,1999.90
2023-07-18T23:01:29.503Z,1999.90
2023-07-18T23:04:32.803Z,1999.90
2023-07-18T23:07:36.925Z,1999.90
2023-07-18T23:10:40.257Z,1999.90
2023-07-18T23:13:43.016Z,1999.90
2023-07-18T23:16:46.153Z,1992.03
2023-07-18T23:19:50.238Z,1989.97
2023-07-18T23:22:53.382Z,1999.90
2023-07-18T23:25:56.387Z,1999.90
2023-07-18T23:28:59.487Z,1999.90
2023-07-18T23:32:02.586Z,1999.90
2023-07-18T23:35:06.286Z,1999.90
2023-07-18T23:38:09.591Z,1999.90
2023-07-18T23:41:12.346Z,1540.93
2023-07-18T23:44:15.586Z,1549.25
2023-07-18T23:47:18.884Z,1628.88
2023-07-18T23:50:22.098Z,1997.35
2023-07-18T23:53:25.042Z,1997.95
2023-07-18T23:56:28.067Z,1999.90
2023-07-18T23:59:31.105Z,1614.50
